sensor_id;sensor_type;location;lat;lon;timestamp;pressure;altitude;pressure_sealevel;temperature;humidity
70103;BME280;57470;50.034;15.256;2023-08-01T00:01:24;98455.66;;;20.21;81.91
70103;BME280;57470;50.034;15.256;2023-08-01T00:03:49;98452.47;;;20.17;81.84
70103;BME280;57470;50.034;15.256;2023-08-01T00:06:14;98453.50;;;20.16;81.36
70103;BME280;57470;50.034;15.256;2023-08-01T00:08:40;98464.59;;;20.21;83.02
70103;BME280;57470;50.034;15.256;2023-08-01T00:11:05;98465.66;;;20.27;82.41
70103;BME280;57470;50.034;15.256;2023-08-01T00:13:31;98444.25;;;20.26;82.06
70103;BME280;57470;50.034;15.256;2023-08-01T00:15:56;98457.19;;;20.30;82.79
70103;BME280;57470;50.034;15.256;2023-08-01T00:18:22;98461.19;;;20.34;82.30
70103;BME280;57470;50.034;15.256;2023-08-01T00:20:47;98465.06;;;20.10;83.89
70103;BME280;57470;50.034;15.256;2023-08-01T00:23:13;98466.22;;;20.22;85.05
70103;BME280;57470;50.034;15.256;2023-08-01T00:25:39;98469.59;;;20.24;84.56
70103;BME280;57470;50.034;15.256;2023-08-01T00:28:04;98470.91;;;20.14;85.44
70103;BME280;57470;50.034;15.256;2023-08-01T00:30:29;98451.94;;;20.07;86.37
70103;BME280;57470;50.034;15.256;2023-08-01T00:32:55;98449.84;;;19.88;86.15
70103;BME280;57470;50.034;15.256;2023-08-01T00:35:20;98458.03;;;19.95;87.18
70103;BME280;57470;50.034;15.256;2023-08-01T00:37:46;98455.59;;;20.00;88.46
70103;BME280;57470;50.034;15.256;2023-08-01T00:40:12;98452.00;;;19.93;88.93
70103;BME280;57470;50.034;15.256;2023-08-01T00:42:37;98464.28;;;19.95;88.91
70103;BME280;57470;50.034;15.256;2023-08-01T00:45:04;98456.69;;;20.05;88.66
70103;BME280;57470;50.034;15.256;2023-08-01T00:47:29;98428.47;;;19.42;90.77
70103;BME280;57470;50.034;15.256;2023-08-01T00:49:55;98422.81;;;19.67;89.70
70103;BME280;57470;50.034;15.256;2023-08-01T00:52:21;98435.50;;;19.88;89.76
70103;BME280;57470;50.034;15.256;2023-08-01T00:54:47;98425.00;;;19.93;89.00
70103;BME280;57470;50.034;15.256;2023-08-01T00:57:13;98432.91;;;19.79;90.10
70103;BME280;57470;50.034;15.256;2023-08-01T00:59:39;98431.47;;;19.77;90.21
70103;BME280;57470;50.034;15.256;2023-08-01T01:02:05;98412.47;;;19.70;88.84
70103;BME280;57470;50.034;15.256;2023-08-01T01:04:30;98419.16;;;19.74;89.95
70103;BME280;57470;50.034;15.256;2023-08-01T01:09:21;98426.13;;;19.83;90.39
70103;BME280;57470;50.034;15.256;2023-08-01T01:11:46;98425.34;;;19.54;91.60
70103;BME280;57470;50.034;15.256;2023-08-01T01:14:12;98413.06;;;19.66;91.32
70103;BME280;57470;50.034;15.256;2023-08-01T01:16:37;98401.34;;;19.59;92.22
70103;BME280;57470;50.034;15.256;2023-08-01T01:19:09;98411.66;;;19.40;93.63
70103;BME280;57470;50.034;15.256;2023-08-01T01:22:00;98409.50;;;19.51;92.64
70103;BME280;57470;50.034;15.256;2023-08-01T01:24:26;98391.47;;;19.36;91.66
70103;BME280;57470;50.034;15.256;2023-08-01T01:26:54;98392.78;;;19.40;91.19
70103;BME280;57470;50.034;15.256;2023-08-01T01:29:20;98397.06;;;19.05;94.03
70103;BME280;57470;50.034;15.256;2023-08-01T01:31:48;98387.13;;;19.50;93.41
70103;BME280;57470;50.034;15.256;2023-08-01T01:34:13;98392.38;;;19.43;92.77
70103;BME280;57470;50.034;15.256;2023-08-01T01:36:39;98369.91;;;19.36;92.59
70103;BME280;57470;50.034;15.256;2023-08-01T01:39:04;98376.97;;;19.23;94.36
70103;BME280;57470;50.034;15.256;2023-08-01T01:41:30;98365.44;;;19.29;93.34
70103;BME280;57470;50.034;15.256;2023-08-01T01:43:55;98362.28;;;19.25;93.23
70103;BME280;57470;50.034;15.256;2023-08-01T01:46:21;98357.97;;;18.72;94.79
70103;BME280;57470;50.034;15.256;2023-08-01T01:48:46;98349.59;;;18.29;97.19
70103;BME280;57470;50.034;15.256;2023-08-01T01:51:12;98350.50;;;18.22;98.83
70103;BME280;57470;50.034;15.256;2023-08-01T01:53:38;98341.03;;;18.49;98.51
70103;BME280;57470;50.034;15.256;2023-08-01T01:56:03;98334.50;;;18.81;96.78
70103;BME280;57470;50.034;15.256;2023-08-01T01:58:29;98332.19;;;18.40;98.85
70103;BME280;57470;50.034;15.256;2023-08-01T02:00:54;98320.28;;;18.87;97.27
70103;BME280;57470;50.034;15.256;2023-08-01T02:03:20;98316.44;;;18.52;98.08
70103;BME280;57470;50.034;15.256;2023-08-01T02:05:45;98312.84;;;18.89;97.52
70103;BME280;57470;50.034;15.256;2023-08-01T02:08:10;98303.28;;;18.57;98.26
70103;BME280;57470;50.034;15.256;2023-08-01T02:10:36;98303.84;;;18.44;98.44
70103;BME280;57470;50.034;15.256;2023-08-01T02:13:02;98303.59;;;18.39;99.52
70103;BME280;57470;50.034;15.256;2023-08-01T02:15:27;98296.53;;;18.38;99.82
70103;BME280;57470;50.034;15.256;2023-08-01T02:17:52;98294.66;;;18.38;99.37
70103;BME280;57470;50.034;15.256;2023-08-01T02:20:18;98288.38;;;18.46;99.13
70103;BME280;57470;50.034;15.256;2023-08-01T02:22:43;98287.59;;;18.60;98.90
70103;BME280;57470;50.034;15.256;2023-08-01T02:25:09;98272.06;;;18.62;97.94
70103;BME280;57470;50.034;15.256;2023-08-01T02:27:34;98284.69;;;18.91;96.79
70103;BME280;57470;50.034;15.256;2023-08-01T02:29:59;98266.31;;;18.95;96.63
70103;BME280;57470;50.034;15.256;2023-08-01T02:32:25;98262.75;;;18.80;97.14
70103;BME280;57470;50.034;15.256;2023-08-01T02:34:50;98275.97;;;18.89;95.80
70103;BME280;57470;50.034;15.256;2023-08-01T02:37:16;98264.38;;;18.59;97.01
70103;BME280;57470;50.034;15.256;2023-08-01T02:39:41;98280.66;;;18.43;97.38
70103;BME280;57470;50.034;15.256;2023-08-01T02:42:06;98270.78;;;18.58;96.77
70103;BME280;57470;50.034;15.256;2023-08-01T02:44:32;98275.16;;;18.36;96.90
70103;BME280;57470;50.034;15.256;2023-08-01T02:46:57;98266.41;;;18.87;95.50
70103;BME280;57470;50.034;15.256;2023-08-01T02:49:23;98270.13;;;18.86;94.89
70103;BME280;57470;50.034;15.256;2023-08-01T02:51:48;98269.44;;;18.54;95.21
70103;BME280;57470;50.034;15.256;2023-08-01T02:54:13;98263.09;;;18.32;97.01
70103;BME280;57470;50.034;15.256;2023-08-01T02:56:39;98266.06;;;18.37;96.87
70103;BME280;57470;50.034;15.256;2023-08-01T02:59:07;98255.13;;;18.39;97.22
70103;BME280;57470;50.034;15.256;2023-08-01T03:01:34;98256.28;;;18.59;95.96
70103;BME280;57470;50.034;15.256;2023-08-01T03:04:02;98251.16;;;18.64;96.14
70103;BME280;57470;50.034;15.256;2023-08-01T03:06:27;98261.47;;;18.90;93.77
70103;BME280;57470;50.034;15.256;2023-08-01T03:08:53;98243.25;;;18.92;94.58
70103;BME280;57470;50.034;15.256;2023-08-01T03:11:18;98257.47;;;19.01;94.48
70103;BME280;57470;50.034;15.256;2023-08-01T03:13:44;98242.06;;;18.95;94.52
70103;BME280;57470;50.034;15.256;2023-08-01T03:16:09;98233.28;;;19.07;93.52
70103;BME280;57470;50.034;15.256;2023-08-01T03:18:35;98246.59;;;18.94;95.01
70103;BME280;57470;50.034;15.256;2023-08-01T03:21:00;98235.34;;;18.91;94.84
70103;BME280;57470;50.034;15.256;2023-08-01T03:23:29;98244.53;;;19.11;94.36
70103;BME280;57470;50.034;15.256;2023-08-01T03:25:54;98234.81;;;18.51;96.00
70103;BME280;57470;50.034;15.256;2023-08-01T03:28:20;98238.06;;;19.05;94.38
70103;BME280;57470;50.034;15.256;2023-08-01T03:30:45;98217.41;;;19.13;94.36
70103;BME280;57470;50.034;15.256;2023-08-01T03:33:11;98233.63;;;19.19;94.40
70103;BME280;57470;50.034;15.256;2023-08-01T03:35:36;98230.56;;;19.22;93.26
70103;BME280;57470;50.034;15.256;2023-08-01T03:38:02;98239.09;;;19.26;95.02
70103;BME280;57470;50.034;15.256;2023-08-01T03:40:27;98233.53;;;19.27;94.47
70103;BME280;57470;50.034;15.256;2023-08-01T03:42:53;98225.66;;;19.47;94.11
70103;BME280;57470;50.034;15.256;2023-08-01T03:45:18;98221.69;;;18.92;95.89
70103;BME280;57470;50.034;15.256;2023-08-01T03:47:44;98195.63;;;18.63;96.24
70103;BME280;57470;50.034;15.256;2023-08-01T03:50:09;98191.91;;;18.64;96.15
70103;BME280;57470;50.034;15.256;2023-08-01T03:52:35;98206.00;;;18.96;96.39
70103;BME280;57470;50.034;15.256;2023-08-01T03:55:00;98211.47;;;19.02;95.78
70103;BME280;57470;50.034;15.256;2023-08-01T03:57:25;98217.09;;;19.07;95.14
70103;BME280;57470;50.034;15.256;2023-08-01T03:59:51;98205.16;;;18.95;95.56
70103;BME280;57470;50.034;15.256;2023-08-01T04:02:16;98220.88;;;18.92;95.57
70103;BME280;57470;50.034;15.256;2023-08-01T04:04:42;98213.16;;;18.89;96.39
70103;BME280;57470;50.034;15.256;2023-08-01T04:07:07;98217.00;;;19.16;95.65
70103;BME280;57470;50.034;15.256;2023-08-01T04:09:33;98212.91;;;19.20;95.29
70103;BME280;57470;50.034;15.256;2023-08-01T04:11:59;98197.81;;;19.04;94.74
70103;BME280;57470;50.034;15.256;2023-08-01T04:14:25;98184.00;;;18.48;97.39
70103;BME280;57470;50.034;15.256;2023-08-01T04:16:50;98203.41;;;18.88;97.45
70103;BME280;57470;50.034;15.256;2023-08-01T04:19:15;98193.97;;;19.13;96.37
70103;BME280;57470;50.034;15.256;2023-08-01T04:21:41;98197.81;;;19.25;95.66
70103;BME280;57470;50.034;15.256;2023-08-01T04:24:06;98190.25;;;18.63;97.15
70103;BME280;57470;50.034;15.256;2023-08-01T04:26:32;98192.09;;;18.78;97.18
70103;BME280;57470;50.034;15.256;2023-08-01T04:29:00;98190.13;;;18.71;97.13
70103;BME280;57470;50.034;15.256;2023-08-01T04:31:26;98171.47;;;18.26;98.73
70103;BME280;57470;50.034;15.256;2023-08-01T04:33:51;98192.00;;;18.42;99.32
70103;BME280;57470;50.034;15.256;2023-08-01T04:36:16;98185.00;;;18.18;100.00
70103;BME280;57470;50.034;15.256;2023-08-01T04:38:42;98169.78;;;17.95;100.00
70103;BME280;57470;50.034;15.256;2023-08-01T04:41:07;98165.25;;;18.25;100.00
70103;BME280;57470;50.034;15.256;2023-08-01T04:43:33;98163.22;;;18.27;100.00
70103;BME280;57470;50.034;15.256;2023-08-01T04:45:58;98162.19;;;18.14;100.00
70103;BME280;57470;50.034;15.256;2023-08-01T04:48:23;98167.88;;;18.33;100.00
70103;BME280;57470;50.034;15.256;2023-08-01T04:50:51;98159.41;;;18.22;100.00
70103;BME280;57470;50.034;15.256;2023-08-01T04:53:16;98163.50;;;18.47;100.00
70103;BME280;57470;50.034;15.256;2023-08-01T04:55:41;98145.22;;;18.13;100.00
70103;BME280;57470;50.034;15.256;2023-08-01T04:58:07;98153.75;;;18.17;100.00
70103;BME280;57470;50.034;15.256;2023-08-01T05:00:32;98144.16;;;17.70;100.00
70103;BME280;57470;50.034;15.256;2023-08-01T05:02:57;98148.09;;;17.97;100.00
70103;BME280;57470;50.034;15.256;2023-08-01T05:05:23;98145.84;;;18.00;100.00
70103;BME280;57470;50.034;15.256;2023-08-01T05:07:48;98148.28;;;17.95;100.00
70103;BME280;57470;50.034;15.256;2023-08-01T05:10:14;98137.41;;;17.89;100.00
70103;BME280;57470;50.034;15.256;2023-08-01T05:12:39;98139.75;;;18.07;100.00
70103;BME280;57470;50.034;15.256;2023-08-01T05:15:05;98145.22;;;18.28;100.00
70103;BME280;57470;50.034;15.256;2023-08-01T05:17:30;98134.25;;;18.29;100.00
70103;BME280;57470;50.034;15.256;2023-08-01T05:19:56;98139.75;;;18.07;100.00
70103;BME280;57470;50.034;15.256;2023-08-01T05:22:21;98141.13;;;18.32;100.00
70103;BME280;57470;50.034;15.256;2023-08-01T05:24:47;98146.97;;;18.50;100.00
70103;BME280;57470;50.034;15.256;2023-08-01T05:27:12;98147.31;;;18.77;100.00
70103;BME280;57470;50.034;15.256;2023-08-01T05:29:37;98146.94;;;18.80;100.00
70103;BME280;57470;50.034;15.256;2023-08-01T05:32:03;98134.41;;;18.72;100.00
70103;BME280;57470;50.034;15.256;2023-08-01T05:34:29;98130.53;;;18.45;100.00
70103;BME280;57470;50.034;15.256;2023-08-01T05:36:54;98132.78;;;18.27;100.00
70103;BME280;57470;50.034;15.256;2023-08-01T05:39:20;98152.09;;;18.60;100.00
70103;BME280;57470;50.034;15.256;2023-08-01T05:41:45;98143.63;;;18.48;100.00
70103;BME280;57470;50.034;15.256;2023-08-01T05:44:11;98138.69;;;18.08;100.00
70103;BME280;57470;50.034;15.256;2023-08-01T05:46:36;98139.91;;;18.49;100.00
70103;BME280;57470;50.034;15.256;2023-08-01T05:49:01;98144.28;;;18.35;100.00
70103;BME280;57470;50.034;15.256;2023-08-01T05:51:27;98146.97;;;18.50;100.00
70103;BME280;57470;50.034;15.256;2023-08-01T05:53:52;98135.28;;;18.14;100.00
70103;BME280;57470;50.034;15.256;2023-08-01T05:56:17;98136.19;;;18.35;100.00
70103;BME280;57470;50.034;15.256;2023-08-01T05:58:43;98130.25;;;18.40;100.00
70103;BME280;57470;50.034;15.256;2023-08-01T06:01:10;98125.16;;;18.30;100.00
70103;BME280;57470;50.034;15.256;2023-08-01T06:03:36;98112.38;;;18.03;100.00
70103;BME280;57470;50.034;15.256;2023-08-01T06:06:01;98107.19;;;18.16;100.00
70103;BME280;57470;50.034;15.256;2023-08-01T06:08:26;98108.00;;;18.17;100.00
70103;BME280;57470;50.034;15.256;2023-08-01T06:10:52;98101.97;;;18.29;100.00
70103;BME280;57470;50.034;15.256;2023-08-01T06:13:17;98102.66;;;18.53;100.00
70103;BME280;57470;50.034;15.256;2023-08-01T06:15:42;98095.59;;;18.16;100.00
70103;BME280;57470;50.034;15.256;2023-08-01T06:18:08;98097.03;;;18.33;100.00
70103;BME280;57470;50.034;15.256;2023-08-01T06:20:33;98099.78;;;18.54;100.00
70103;BME280;57470;50.034;15.256;2023-08-01T06:22:59;98091.47;;;18.20;100.00
70103;BME280;57470;50.034;15.256;2023-08-01T06:25:24;98091.50;;;18.56;100.00
70103;BME280;57470;50.034;15.256;2023-08-01T06:27:50;98072.31;;;18.59;100.00
70103;BME280;57470;50.034;15.256;2023-08-01T06:30:15;98068.22;;;18.63;100.00
70103;BME280;57470;50.034;15.256;2023-08-01T06:32:40;98070.34;;;18.89;100.00
70103;BME280;57470;50.034;15.256;2023-08-01T06:35:06;98076.03;;;18.58;100.00
70103;BME280;57470;50.034;15.256;2023-08-01T06:37:31;98078.94;;;18.99;100.00
70103;BME280;57470;50.034;15.256;2023-08-01T06:39:58;98079.78;;;18.99;99.62
70103;BME280;57470;50.034;15.256;2023-08-01T06:42:23;98077.56;;;19.03;99.09
70103;BME280;57470;50.034;15.256;2023-08-01T06:44:48;98077.06;;;19.63;97.63
70103;BME280;57470;50.034;15.256;2023-08-01T06:47:14;98062.31;;;19.59;96.61
70103;BME280;57470;50.034;15.256;2023-08-01T06:49:39;98062.50;;;19.36;96.93
70103;BME280;57470;50.034;15.256;2023-08-01T06:52:05;98052.38;;;19.38;97.34
70103;BME280;57470;50.034;15.256;2023-08-01T06:54:31;98048.88;;;19.44;95.45
70103;BME280;57470;50.034;15.256;2023-08-01T06:56:57;98046.56;;;19.14;95.73
70103;BME280;57470;50.034;15.256;2023-08-01T06:59:24;98046.59;;;19.41;93.12
70103;BME280;57470;50.034;15.256;2023-08-01T07:01:49;98046.81;;;19.46;92.22
70103;BME280;57470;50.034;15.256;2023-08-01T07:04:14;98042.94;;;19.28;93.24
70103;BME280;57470;50.034;15.256;2023-08-01T07:06:40;98050.19;;;19.06;93.89
70103;BME280;57470;50.034;15.256;2023-08-01T07:09:06;98047.81;;;19.39;92.77
70103;BME280;57470;50.034;15.256;2023-08-01T07:11:31;98044.63;;;19.50;91.05
70103;BME280;57470;50.034;15.256;2023-08-01T07:13:57;98033.81;;;19.29;93.75
70103;BME280;57470;50.034;15.256;2023-08-01T07:16:22;98051.22;;;19.26;92.79
70103;BME280;57470;50.034;15.256;2023-08-01T07:18:48;98044.53;;;19.71;90.65
70103;BME280;57470;50.034;15.256;2023-08-01T07:21:13;98023.81;;;19.78;89.78
70103;BME280;57470;50.034;15.256;2023-08-01T07:23:39;98039.59;;;19.75;91.38
70103;BME280;57470;50.034;15.256;2023-08-01T07:26:04;98014.34;;;19.89;90.72
70103;BME280;57470;50.034;15.256;2023-08-01T07:28:30;98026.47;;;19.72;92.72
70103;BME280;57470;50.034;15.256;2023-08-01T07:31:06;98006.41;;;19.81;90.50
70103;BME280;57470;50.034;15.256;2023-08-01T07:33:33;98026.19;;;20.36;89.66
70103;BME280;57470;50.034;15.256;2023-08-01T07:35:58;98029.75;;;20.43;88.62
70103;BME280;57470;50.034;15.256;2023-08-01T07:38:24;98012.34;;;19.70;91.80
70103;BME280;57470;50.034;15.256;2023-08-01T07:40:50;98029.28;;;19.85;91.75
70103;BME280;57470;50.034;15.256;2023-08-01T07:43:15;98017.16;;;19.74;91.05
70103;BME280;57470;50.034;15.256;2023-08-01T07:45:41;98023.72;;;19.59;92.29
70103;BME280;57470;50.034;15.256;2023-08-01T07:48:06;98010.25;;;19.65;92.77
70103;BME280;57470;50.034;15.256;2023-08-01T07:50:32;98037.47;;;19.70;92.13
70103;BME280;57470;50.034;15.256;2023-08-01T07:52:57;98019.56;;;19.35;94.31
70103;BME280;57470;50.034;15.256;2023-08-01T07:55:23;98025.81;;;19.42;95.52
70103;BME280;57470;50.034;15.256;2023-08-01T07:57:48;98025.69;;;19.22;95.37
70103;BME280;57470;50.034;15.256;2023-08-01T08:00:14;98015.53;;;19.24;94.66
70103;BME280;57470;50.034;15.256;2023-08-01T08:02:44;98010.69;;;19.13;94.33
70103;BME280;57470;50.034;15.256;2023-08-01T08:05:10;98010.88;;;19.11;94.44
70103;BME280;57470;50.034;15.256;2023-08-01T08:07:39;98017.09;;;19.12;95.58
70103;BME280;57470;50.034;15.256;2023-08-01T08:10:05;98003.47;;;19.20;94.54
70103;BME280;57470;50.034;15.256;2023-08-01T08:12:31;98013.31;;;19.34;94.36
70103;BME280;57470;50.034;15.256;2023-08-01T08:14:57;98005.91;;;19.43;95.64
70103;BME280;57470;50.034;15.256;2023-08-01T08:17:22;98008.22;;;19.18;95.17
70103;BME280;57470;50.034;15.256;2023-08-01T08:19:47;97998.88;;;19.14;95.33
70103;BME280;57470;50.034;15.256;2023-08-01T08:22:13;98008.50;;;19.23;95.82
70103;BME280;57470;50.034;15.256;2023-08-01T08:24:38;98005.25;;;19.34;96.19
70103;BME280;57470;50.034;15.256;2023-08-01T08:27:04;98000.09;;;19.11;95.59
70103;BME280;57470;50.034;15.256;2023-08-01T08:29:30;98003.00;;;19.38;95.98
70103;BME280;57470;50.034;15.256;2023-08-01T08:31:57;98000.78;;;19.20;95.66
70103;BME280;57470;50.034;15.256;2023-08-01T08:34:22;98005.41;;;19.54;94.87
70103;BME280;57470;50.034;15.256;2023-08-01T08:36:48;97990.44;;;19.52;95.50
70103;BME280;57470;50.034;15.256;2023-08-01T08:39:15;98003.34;;;19.56;94.78
70103;BME280;57470;50.034;15.256;2023-08-01T08:41:52;98001.69;;;19.55;95.25
70103;BME280;57470;50.034;15.256;2023-08-01T08:44:19;97999.84;;;19.34;94.65
70103;BME280;57470;50.034;15.256;2023-08-01T08:46:53;97991.25;;;19.24;95.72
70103;BME280;57470;50.034;15.256;2023-08-01T08:49:22;98008.63;;;19.43;94.19
70103;BME280;57470;50.034;15.256;2023-08-01T08:51:48;98000.22;;;19.53;94.56
70103;BME280;57470;50.034;15.256;2023-08-01T08:54:15;98002.16;;;19.65;93.19
70103;BME280;57470;50.034;15.256;2023-08-01T08:56:41;98005.53;;;19.74;91.46
70103;BME280;57470;50.034;15.256;2023-08-01T08:59:08;97995.63;;;19.81;91.84
70103;BME280;57470;50.034;15.256;2023-08-01T09:01:36;98013.59;;;20.08;90.01
70103;BME280;57470;50.034;15.256;2023-08-01T09:04:02;98011.09;;;20.07;88.21
70103;BME280;57470;50.034;15.256;2023-08-01T09:06:49;98008.53;;;19.85;89.54
70103;BME280;57470;50.034;15.256;2023-08-01T09:09:16;98012.84;;;20.28;88.91
70103;BME280;57470;50.034;15.256;2023-08-01T09:11:50;98007.81;;;20.18;87.82
70103;BME280;57470;50.034;15.256;2023-08-01T09:14:17;98009.56;;;19.84;89.28
70103;BME280;57470;50.034;15.256;2023-08-01T09:16:44;98004.41;;;19.96;88.96
70103;BME280;57470;50.034;15.256;2023-08-01T09:19:10;98009.06;;;20.15;89.30
70103;BME280;57470;50.034;15.256;2023-08-01T09:21:39;98012.75;;;20.01;87.96
70103;BME280;57470;50.034;15.256;2023-08-01T09:24:16;98011.13;;;20.13;87.76
70103;BME280;57470;50.034;15.256;2023-08-01T09:26:42;98018.19;;;20.14;88.36
70103;BME280;57470;50.034;15.256;2023-08-01T09:29:08;98015.94;;;20.18;87.82
70103;BME280;57470;50.034;15.256;2023-08-01T09:31:43;98020.28;;;20.12;87.31
70103;BME280;57470;50.034;15.256;2023-08-01T09:34:25;98018.81;;;20.64;87.08
70103;BME280;57470;50.034;15.256;2023-08-01T09:36:57;98025.06;;;20.71;88.35
70103;BME280;57470;50.034;15.256;2023-08-01T09:39:23;98012.38;;;20.78;86.71
70103;BME280;57470;50.034;15.256;2023-08-01T09:41:58;98028.91;;;20.42;88.83
70103;BME280;57470;50.034;15.256;2023-08-01T09:44:26;98022.50;;;20.50;88.34
70103;BME280;57470;50.034;15.256;2023-08-01T09:46:59;98027.31;;;20.61;88.01
70103;BME280;57470;50.034;15.256;2023-08-01T09:49:24;98029.41;;;20.11;90.03
70103;BME280;57470;50.034;15.256;2023-08-01T09:51:50;98029.06;;;20.28;88.88
70103;BME280;57470;50.034;15.256;2023-08-01T09:54:17;98024.69;;;20.33;91.14
70103;BME280;57470;50.034;15.256;2023-08-01T09:56:44;98025.13;;;20.30;91.10
70103;BME280;57470;50.034;15.256;2023-08-01T09:59:10;98025.00;;;20.58;89.81
70103;BME280;57470;50.034;15.256;2023-08-01T10:01:38;98015.88;;;20.59;90.38
70103;BME280;57470;50.034;15.256;2023-08-01T10:04:05;98019.22;;;20.68;91.45
70103;BME280;57470;50.034;15.256;2023-08-01T10:06:34;98005.75;;;20.94;90.73
70103;BME280;57470;50.034;15.256;2023-08-01T10:09:02;98007.22;;;20.90;88.59
70103;BME280;57470;50.034;15.256;2023-08-01T10:11:30;98015.97;;;20.98;88.49
70103;BME280;57470;50.034;15.256;2023-08-01T10:14:00;98009.56;;;21.26;87.37
70103;BME280;57470;50.034;15.256;2023-08-01T10:16:28;98003.50;;;21.24;87.88
70103;BME280;57470;50.034;15.256;2023-08-01T10:18:54;97989.31;;;20.95;87.42
70103;BME280;57470;50.034;15.256;2023-08-01T10:21:20;97992.44;;;21.12;87.45
70103;BME280;57470;50.034;15.256;2023-08-01T10:23:46;98000.56;;;20.99;86.33
70103;BME280;57470;50.034;15.256;2023-08-01T10:26:13;97995.56;;;21.03;86.12
70103;BME280;57470;50.034;15.256;2023-08-01T10:28:40;97992.69;;;21.24;86.28
70103;BME280;57470;50.034;15.256;2023-08-01T10:31:14;97992.25;;;21.01;83.68
70103;BME280;57470;50.034;15.256;2023-08-01T10:33:45;97989.94;;;21.04;86.69
70103;BME280;57470;50.034;15.256;2023-08-01T10:38:54;98004.34;;;21.24;83.18
70103;BME280;57470;50.034;15.256;2023-08-01T10:41:24;97997.44;;;21.48;83.41
70103;BME280;57470;50.034;15.256;2023-08-01T10:44:09;97991.84;;;21.17;84.00
70103;BME280;57470;50.034;15.256;2023-08-01T10:46:48;97991.03;;;21.23;84.46
70103;BME280;57470;50.034;15.256;2023-08-01T10:49:14;97971.81;;;21.70;82.49
70103;BME280;57470;50.034;15.256;2023-08-01T10:51:40;97978.50;;;21.48;83.01
70103;BME280;57470;50.034;15.256;2023-08-01T10:54:06;97972.38;;;21.86;81.27
70103;BME280;57470;50.034;15.256;2023-08-01T10:56:32;97985.56;;;21.62;82.15
70103;BME280;57470;50.034;15.256;2023-08-01T10:58:58;97981.38;;;21.66;82.27
70103;BME280;57470;50.034;15.256;2023-08-01T11:01:24;97973.66;;;21.77;81.75
70103;BME280;57470;50.034;15.256;2023-08-01T11:03:51;97969.25;;;21.89;82.87
70103;BME280;57470;50.034;15.256;2023-08-01T11:06:18;97961.47;;;21.34;82.00
70103;BME280;57470;50.034;15.256;2023-08-01T11:08:44;97962.69;;;21.52;83.46
70103;BME280;57470;50.034;15.256;2023-08-01T11:11:13;97956.69;;;21.43;82.75
70103;BME280;57470;50.034;15.256;2023-08-01T11:13:39;97959.38;;;21.43;81.89
70103;BME280;57470;50.034;15.256;2023-08-01T11:16:05;97951.50;;;21.09;84.17
70103;BME280;57470;50.034;15.256;2023-08-01T11:18:42;97938.00;;;21.28;82.74
70103;BME280;57470;50.034;15.256;2023-08-01T11:21:07;97936.31;;;21.34;82.78
70103;BME280;57470;50.034;15.256;2023-08-01T11:23:33;97921.75;;;21.35;83.43
70103;BME280;57470;50.034;15.256;2023-08-01T11:25:58;97930.81;;;21.67;83.21
70103;BME280;57470;50.034;15.256;2023-08-01T11:28:24;97927.16;;;21.09;83.50
70103;BME280;57470;50.034;15.256;2023-08-01T11:30:50;97928.59;;;21.05;83.68
70103;BME280;57470;50.034;15.256;2023-08-01T11:33:22;97941.09;;;21.25;85.29
70103;BME280;57470;50.034;15.256;2023-08-01T11:35:57;97931.53;;;21.10;82.74
70103;BME280;57470;50.034;15.256;2023-08-01T11:38:26;97937.13;;;21.15;81.41
70103;BME280;57470;50.034;15.256;2023-08-01T11:40:52;97926.13;;;21.23;82.03
70103;BME280;57470;50.034;15.256;2023-08-01T11:43:18;97929.22;;;21.33;81.93
70103;BME280;57470;50.034;15.256;2023-08-01T11:45:54;97931.91;;;21.53;81.62
70103;BME280;57470;50.034;15.256;2023-08-01T11:48:23;97941.13;;;21.96;80.51
70103;BME280;57470;50.034;15.256;2023-08-01T11:50:49;97923.75;;;21.59;81.88
70103;BME280;57470;50.034;15.256;2023-08-01T11:53:20;97925.25;;;21.42;81.23
70103;BME280;57470;50.034;15.256;2023-08-01T11:55:47;97928.34;;;21.59;82.11
70103;BME280;57470;50.034;15.256;2023-08-01T11:58:13;97922.28;;;21.63;80.09
70103;BME280;57470;50.034;15.256;2023-08-01T12:00:39;97914.59;;;21.60;80.25
70103;BME280;57470;50.034;15.256;2023-08-01T12:03:07;97921.13;;;22.04;79.04
70103;BME280;57470;50.034;15.256;2023-08-01T12:05:37;97918.72;;;22.21;78.41
70103;BME280;57470;50.034;15.256;2023-08-01T12:08:13;97912.16;;;22.41;78.08
70103;BME280;57470;50.034;15.256;2023-08-01T12:10:43;97919.75;;;22.58;79.22
70103;BME280;57470;50.034;15.256;2023-08-01T12:13:22;97910.50;;;22.72;78.75
70103;BME280;57470;50.034;15.256;2023-08-01T12:15:49;97905.91;;;22.72;75.55
70103;BME280;57470;50.034;15.256;2023-08-01T12:20:47;97902.59;;;22.64;77.71
70103;BME280;57470;50.034;15.256;2023-08-01T12:23:12;97897.63;;;23.17;75.08
70103;BME280;57470;50.034;15.256;2023-08-01T12:25:37;97894.22;;;23.40;73.68
70103;BME280;57470;50.034;15.256;2023-08-01T12:28:03;97898.41;;;23.17;73.92
70103;BME280;57470;50.034;15.256;2023-08-01T12:30:28;97897.28;;;23.68;73.83
70103;BME280;57470;50.034;15.256;2023-08-01T12:32:54;97885.16;;;23.28;72.76
70103;BME280;57470;50.034;15.256;2023-08-01T12:35:19;97885.06;;;22.98;72.99
70103;BME280;57470;50.034;15.256;2023-08-01T12:37:44;97885.53;;;23.13;72.49
70103;BME280;57470;50.034;15.256;2023-08-01T12:40:10;97889.66;;;23.77;71.34
70103;BME280;57470;50.034;15.256;2023-08-01T12:42:36;97905.22;;;23.27;72.57
70103;BME280;57470;50.034;15.256;2023-08-01T12:45:02;97903.53;;;23.50;72.20
70103;BME280;57470;50.034;15.256;2023-08-01T12:47:28;97901.88;;;23.86;70.70
70103;BME280;57470;50.034;15.256;2023-08-01T12:49:54;97881.81;;;24.17;71.62
70103;BME280;57470;50.034;15.256;2023-08-01T12:52:24;97877.38;;;24.64;70.72